createdAt,value
2022-08-17T00:01:51.553Z,31.67
2022-08-17T00:04:21.455Z,28.05
2022-08-17T00:06:50.550Z,29.88
2022-08-17T00:09:19.534Z,28.58
2022-08-17T00:12:40.661Z,31.60
2022-08-17T00:14:37.933Z,31.98
2022-08-17T00:17:07.988Z,28.98
2022-08-17T00:19:36.029Z,28.88
2022-08-17T00:22:34.376Z,29.60
2022-08-17T00:24:54.844Z,26.67
2022-08-17T00:27:23.018Z,24.02
2022-08-17T00:29:51.992Z,25.17
2022-08-17T00:33:13.795Z,26.58
2022-08-17T00:35:12.399Z,47.70
2022-08-17T00:37:40.675Z,26.35
2022-08-17T00:40:11.067Z,26.35
2022-08-17T00:42:39.656Z,27.25
2022-08-17T00:45:09.942Z,27.38
2022-08-17T00:47:40.088Z,25.48
2022-08-17T00:50:10.805Z,24.83
2022-08-17T00:52:44.457Z,25.42
2022-08-17T00:55:13.123Z,28.90
2022-08-17T00:57:45.687Z,25.63
2022-08-17T01:00:18.021Z,27.23
2022-08-17T01:02:48.957Z,27.75
2022-08-17T01:05:21.775Z,28.35
2022-08-17T01:07:51.496Z,24.65
2022-08-17T01:10:57.102Z,24.42
2022-08-17T01:13:12.948Z,25.10
2022-08-17T01:15:46.245Z,26.88
2022-08-17T01:18:16.705Z,25.23
2022-08-17T01:20:49.793Z,20.65
2022-08-17T01:23:21.786Z,25.70
2022-08-17T01:25:51.955Z,23.42
2022-08-17T01:28:53.073Z,22.08
2022-08-17T01:31:10.098Z,24.88
2022-08-17T01:33:38.761Z,25.85
2022-08-17T01:36:08.783Z,25.83
2022-08-17T01:38:39.348Z,26.50
2022-08-17T01:41:11.251Z,32.35
2022-08-17T01:43:44.711Z,23.88
2022-08-17T01:46:18.208Z,24.95
2022-08-17T01:48:47.619Z,29.23
2022-08-17T01:51:16.525Z,29.73
2022-08-17T01:53:50.759Z,27.50
2022-08-17T01:56:21.310Z,26.13
2022-08-17T01:58:49.500Z,25.92
2022-08-17T02:01:19.778Z,31.17
2022-08-17T02:03:59.465Z,27.77
2022-08-17T02:06:45.167Z,32.42
2022-08-17T02:09:23.368Z,37.22
2022-08-17T02:11:54.422Z,37.38
2022-08-17T02:14:23.405Z,41.22
2022-08-17T02:16:51.878Z,34.92
2022-08-17T02:19:20.001Z,33.72
2022-08-17T02:21:50.845Z,33.42
2022-08-17T02:24:58.670Z,31.65
2022-08-17T02:27:12.190Z,33.75
2022-08-17T02:29:40.392Z,30.00
2022-08-17T02:32:20.851Z,32.88
2022-08-17T02:34:55.960Z,28.45
2022-08-17T02:37:24.160Z,26.33
2022-08-17T02:39:53.881Z,25.85
2022-08-17T02:42:27.761Z,27.05
2022-08-17T02:44:56.070Z,30.63
2022-08-17T02:47:24.662Z,24.83
2022-08-17T02:49:55.403Z,29.85
2022-08-17T02:52:43.508Z,26.33
2022-08-17T02:55:16.096Z,26.25
2022-08-17T02:57:44.627Z,28.33
2022-08-17T03:00:16.893Z,28.80
2022-08-17T03:02:46.132Z,28.30
2022-08-17T03:05:16.747Z,30.45
2022-08-17T03:07:44.897Z,32.92
2022-08-17T03:10:16.473Z,29.60
2022-08-17T03:12:45.915Z,27.55
2022-08-17T03:15:16.316Z,29.50
2022-08-17T03:17:45.084Z,27.73
2022-08-17T03:20:14.000Z,26.17
2022-08-17T03:22:53.462Z,30.30
2022-08-17T03:25:26.818Z,29.33
2022-08-17T03:27:56.700Z,27.25
2022-08-17T03:30:25.876Z,27.13
2022-08-17T03:33:00.020Z,27.63
2022-08-17T03:35:31.065Z,24.98
2022-08-17T03:38:01.308Z,28.95
2022-08-17T03:40:41.821Z,29.63
2022-08-17T03:43:22.345Z,25.35
2022-08-17T03:46:28.610Z,29.75
2022-08-17T03:49:13.751Z,28.02
2022-08-17T03:51:59.442Z,29.60
2022-08-17T03:54:44.971Z,29.45
2022-08-17T03:57:14.614Z,29.67
2022-08-17T03:59:42.808Z,28.20
2022-08-17T04:02:13.850Z,27.83
2022-08-17T04:04:41.989Z,30.10
2022-08-17T04:07:10.735Z,30.63
2022-08-17T04:09:38.864Z,32.90
2022-08-17T04:12:07.278Z,41.90
2022-08-17T04:14:51.976Z,39.15
2022-08-17T04:17:23.316Z,39.05
2022-08-17T04:19:51.403Z,37.85
2022-08-17T04:22:32.377Z,42.72
2022-08-17T04:25:09.737Z,37.63
2022-08-17T04:27:37.839Z,38.15
2022-08-17T04:30:08.562Z,35.60
2022-08-17T04:33:00.767Z,38.97
2022-08-17T04:35:36.554Z,36.20
2022-08-17T04:38:05.093Z,34.08
2022-08-17T04:40:50.614Z,35.00
2022-08-17T04:43:20.313Z,37.28
2022-08-17T04:45:56.268Z,36.30
2022-08-17T04:48:29.727Z,36.33
2022-08-17T04:51:04.937Z,35.85
2022-08-17T04:53:33.057Z,35.60
2022-08-17T04:56:01.139Z,33.47
2022-08-17T04:58:29.322Z,29.52
2022-08-17T05:00:58.832Z,32.75
2022-08-17T05:03:27.023Z,31.50
2022-08-17T05:05:55.172Z,34.28
2022-08-17T05:08:23.213Z,29.27
2022-08-17T05:10:52.141Z,33.10
2022-08-17T05:13:22.913Z,27.25
2022-08-17T05:15:55.349Z,29.17
2022-08-17T05:18:24.959Z,27.58
2022-08-17T05:20:53.528Z,30.05
2022-08-17T05:23:23.769Z,27.45
2022-08-17T05:25:54.657Z,25.23
2022-08-17T05:28:27.356Z,26.08
2022-08-17T05:30:58.215Z,23.27
2022-08-17T05:33:30.417Z,31.08
2022-08-17T05:36:00.122Z,24.55
2022-08-17T05:38:30.220Z,33.08
2022-08-17T05:40:59.806Z,30.17
2022-08-17T05:43:29.918Z,29.65
2022-08-17T05:46:03.994Z,31.35
2022-08-17T05:48:39.663Z,28.58
2022-08-17T05:51:33.185Z,22.95
2022-08-17T05:54:10.625Z,26.48
2022-08-17T05:56:58.782Z,27.00
2022-08-17T05:59:34.225Z,24.83
2022-08-17T06:02:07.713Z,23.05
2022-08-17T06:04:49.458Z,24.85
2022-08-17T06:07:22.151Z,30.98
2022-08-17T06:10:00.024Z,29.60
2022-08-17T06:12:41.119Z,25.40
2022-08-17T06:15:24.669Z,22.73
2022-08-17T06:17:57.013Z,25.52
2022-08-17T06:20:31.210Z,23.42
2022-08-17T06:23:05.240Z,23.92
2022-08-17T06:25:38.039Z,24.58
2022-08-17T06:28:13.982Z,20.98
2022-08-17T06:30:59.101Z,19.63
2022-08-17T06:33:34.429Z,19.52
2022-08-17T06:36:16.220Z,19.63
2022-08-17T06:38:53.340Z,21.63
2022-08-17T06:41:29.569Z,23.73
2022-08-17T06:44:10.921Z,19.77
2022-08-17T06:46:42.653Z,20.70
2022-08-17T06:49:19.867Z,20.70
2022-08-17T06:51:53.547Z,16.63
2022-08-17T06:54:29.866Z,19.73
2022-08-17T06:57:05.626Z,21.33
2022-08-17T06:59:54.814Z,17.33
2022-08-17T07:02:51.208Z,21.00
2022-08-17T07:05:25.053Z,22.17
2022-08-17T07:08:03.917Z,19.83
2022-08-17T07:10:47.798Z,19.10
2022-08-17T07:13:25.951Z,17.50
2022-08-17T07:16:00.864Z,23.80
2022-08-17T07:18:33.204Z,17.48
2022-08-17T07:21:14.150Z,22.27
2022-08-17T07:24:01.096Z,16.27
2022-08-17T07:26:29.737Z,22.15
2022-08-17T07:28:58.274Z,18.33
2022-08-17T07:31:30.520Z,20.65
2022-08-17T07:34:08.062Z,20.77
2022-08-17T07:36:36.224Z,19.75
2022-08-17T07:39:06.358Z,19.25
2022-08-17T07:41:57.810Z,17.30
2022-08-17T07:44:28.141Z,17.60
2022-08-17T07:47:14.046Z,19.98
2022-08-17T07:49:46.071Z,17.83
2022-08-17T07:52:50.501Z,17.88
2022-08-17T07:55:30.496Z,15.80
2022-08-17T07:58:00.251Z,18.85
2022-08-17T08:00:32.249Z,15.35
2022-08-17T08:03:27.212Z,18.70
2022-08-17T08:06:00.344Z,15.85
2022-08-17T08:08:43.667Z,17.38
2022-08-17T08:11:16.230Z,17.65
2022-08-17T08:13:46.106Z,17.45
2022-08-17T08:16:27.697Z,15.95
2022-08-17T08:18:58.668Z,16.15
2022-08-17T08:21:34.489Z,16.95
2022-08-17T08:24:30.773Z,15.30
2022-08-17T08:27:10.259Z,16.35
2022-08-17T08:29:46.574Z,20.17
2022-08-17T08:32:21.284Z,17.98
2022-08-17T08:35:02.920Z,14.32
2022-08-17T08:37:42.862Z,17.85
2022-08-17T08:40:25.423Z,15.88
2022-08-17T08:43:08.193Z,16.45
2022-08-17T08:45:44.702Z,17.10
2022-08-17T08:48:56.446Z,17.73
2022-08-17T08:51:27.746Z,14.52
2022-08-17T08:54:04.657Z,13.45
2022-08-17T08:56:39.524Z,14.85
2022-08-17T08:59:19.634Z,16.42
2022-08-17T09:01:58.013Z,19.00
2022-08-17T09:05:10.557Z,20.00
2022-08-17T09:07:39.791Z,17.67
2022-08-17T09:10:17.835Z,16.42
2022-08-17T09:12:52.023Z,17.73
2022-08-17T09:15:27.726Z,15.18
2022-08-17T09:18:36.455Z,12.35
2022-08-17T09:20:56.283Z,13.85
2022-08-17T09:23:33.665Z,14.80
2022-08-17T09:26:06.338Z,15.02
2022-08-17T09:28:36.580Z,16.77
2022-08-17T09:31:10.768Z,13.60
2022-08-17T09:33:46.757Z,17.05
2022-08-17T09:36:24.284Z,14.45
2022-08-17T09:38:59.154Z,14.80
2022-08-17T09:41:35.779Z,11.80
2022-08-17T09:44:23.124Z,16.35
2022-08-17T09:46:57.001Z,15.45
2022-08-17T09:49:31.934Z,12.98
2022-08-17T09:52:04.667Z,13.45
2022-08-17T09:54:39.012Z,13.10
2022-08-17T09:57:31.508Z,10.52
2022-08-17T10:00:17.026Z,12.50
2022-08-17T10:03:17.203Z,12.82
2022-08-17T10:05:52.350Z,14.50
2022-08-17T10:08:37.497Z,12.82
2022-08-17T10:11:22.435Z,15.30
2022-08-17T10:14:37.054Z,11.77
2022-08-17T10:17:04.500Z,11.70
2022-08-17T10:19:39.864Z,12.77
2022-08-17T10:22:38.177Z,14.60
2022-08-17T10:25:33.444Z,10.00
2022-08-17T10:28:21.008Z,10.68
2022-08-17T10:31:16.735Z,7.65
2022-08-17T10:33:56.690Z,10.18
2022-08-17T10:36:38.025Z,9.88
2022-08-17T10:39:15.761Z,10.90
2022-08-17T10:41:49.580Z,9.68
2022-08-17T10:44:38.120Z,10.80
2022-08-17T10:47:11.371Z,8.98
2022-08-17T10:49:47.796Z,10.40
2022-08-17T10:52:50.158Z,12.02
2022-08-17T10:55:20.501Z,11.75
2022-08-17T10:57:50.823Z,11.65
2022-08-17T11:01:12.555Z,14.88
2022-08-17T11:03:54.820Z,9.27
2022-08-17T11:06:32.848Z,14.48
2022-08-17T11:09:26.299Z,11.07
2022-08-17T11:12:26.171Z,9.25
2022-08-17T11:15:04.813Z,10.55
2022-08-17T11:18:12.532Z,9.07
2022-08-17T11:21:03.206Z,12.35
2022-08-17T11:23:58.075Z,16.75
2022-08-17T11:26:30.073Z,7.70
2022-08-17T11:29:05.186Z,11.05
2022-08-17T11:31:39.291Z,8.55
2022-08-17T11:34:18.516Z,7.72
2022-08-17T11:37:13.000Z,9.98
2022-08-17T11:40:10.647Z,16.52
2022-08-17T11:42:56.079Z,6.65
2022-08-17T11:45:57.134Z,10.32
2022-08-17T11:48:50.346Z,9.13
2022-08-17T11:51:34.683Z,9.25
2022-08-17T11:56:59.536Z,8.52
2022-08-17T11:59:59.555Z,10.60
2022-08-17T12:02:49.037Z,10.88
2022-08-17T12:05:36.299Z,8.43
2022-08-17T12:08:15.989Z,7.53
2022-08-17T12:11:01.213Z,8.23
2022-08-17T12:13:39.517Z,7.93
2022-08-17T12:16:14.831Z,11.13
2022-08-17T12:18:50.813Z,12.65
2022-08-17T12:21:45.097Z,24.08
2022-08-17T12:24:24.611Z,11.68
2022-08-17T12:26:54.733Z,9.88
2022-08-17T12:29:35.624Z,12.40
2022-08-17T12:32:16.697Z,13.32
2022-08-17T12:34:46.710Z,15.52
2022-08-17T12:37:18.630Z,10.85
2022-08-17T12:39:53.677Z,9.98
2022-08-17T12:42:29.323Z,10.73
2022-08-17T12:44:57.697Z,9.23
2022-08-17T12:47:30.077Z,8.35
2022-08-17T12:50:08.363Z,11.98
2022-08-17T12:53:01.655Z,13.82
2022-08-17T12:55:39.004Z,12.25
2022-08-17T12:58:14.487Z,9.82
2022-08-17T13:00:49.822Z,9.57
2022-08-17T13:03:22.260Z,9.70
2022-08-17T13:05:58.036Z,9.27
2022-08-17T13:08:31.127Z,9.80
2022-08-17T13:11:01.382Z,11.25
2022-08-17T13:13:32.350Z,8.25
2022-08-17T13:16:03.293Z,9.50
2022-08-17T13:18:42.822Z,9.18
2022-08-17T13:21:22.319Z,10.40
2022-08-17T13:23:59.268Z,10.65
2022-08-17T13:26:32.017Z,10.75
2022-08-17T13:29:01.340Z,9.23
2022-08-17T13:31:47.458Z,11.73
2022-08-17T13:34:38.718Z,9.60
2022-08-17T13:37:34.751Z,9.93
2022-08-17T13:40:21.208Z,8.85
2022-08-17T13:42:52.826Z,9.98
2022-08-17T13:45:43.943Z,12.07
2022-08-17T13:48:21.048Z,8.30
2022-08-17T13:51:32.183Z,12.90
2022-08-17T13:54:21.568Z,9.73
2022-08-17T13:57:17.856Z,13.13
2022-08-17T13:59:53.443Z,15.23
2022-08-17T14:02:27.621Z,17.65
2022-08-17T14:04:58.687Z,9.55
2022-08-17T14:07:36.870Z,8.85
2022-08-17T14:10:10.475Z,13.30
2022-08-17T14:12:40.768Z,12.35
2022-08-17T14:15:10.813Z,12.00
2022-08-17T14:17:39.774Z,13.52
2022-08-17T14:20:11.853Z,11.05
2022-08-17T14:22:45.063Z,13.00
2022-08-17T14:25:15.074Z,10.95
2022-08-17T14:27:52.765Z,11.48
2022-08-17T14:30:24.647Z,14.95
2022-08-17T14:32:53.825Z,9.75
2022-08-17T14:35:24.439Z,12.95
2022-08-17T14:37:54.205Z,9.90
2022-08-17T14:40:24.985Z,16.45
2022-08-17T14:42:55.179Z,12.05
2022-08-17T14:45:29.652Z,11.02
2022-08-17T14:48:02.765Z,13.38
2022-08-17T14:50:31.745Z,10.85
2022-08-17T14:53:03.856Z,10.27
2022-08-17T14:55:32.529Z,11.52
2022-08-17T14:58:00.768Z,10.93
2022-08-17T15:00:29.417Z,11.70
2022-08-17T15:03:00.149Z,18.10
2022-08-17T15:05:31.702Z,14.85
2022-08-17T15:08:02.175Z,11.68
2022-08-17T15:10:31.426Z,9.88
2022-08-17T15:13:00.558Z,12.82
2022-08-17T15:15:29.668Z,13.73
2022-08-17T15:17:58.247Z,14.45
2022-08-17T15:20:30.267Z,10.48
2022-08-17T15:22:59.504Z,10.02
2022-08-17T15:25:32.816Z,10.80
2022-08-17T15:28:02.034Z,9.85
2022-08-17T15:30:31.806Z,10.88
2022-08-17T15:33:01.868Z,11.13
2022-08-17T15:35:32.071Z,8.13
2022-08-17T15:38:06.505Z,8.77
2022-08-17T15:40:38.738Z,16.48
2022-08-17T15:43:07.534Z,12.05
2022-08-17T15:45:35.793Z,14.27
2022-08-17T15:48:04.481Z,13.32
2022-08-17T15:50:32.725Z,11.30
2022-08-17T15:53:02.508Z,13.73
2022-08-17T15:55:32.558Z,9.98
2022-08-17T15:58:02.422Z,12.10
2022-08-17T16:00:30.578Z,11.73
2022-08-17T16:03:45.086Z,12.23
2022-08-17T16:05:52.068Z,10.15
2022-08-17T16:08:21.460Z,10.40
2022-08-17T16:10:50.325Z,10.35
2022-08-17T16:13:20.582Z,10.98
2022-08-17T16:15:56.602Z,10.82
2022-08-17T16:18:31.040Z,13.65
2022-08-17T16:21:19.782Z,7.93
2022-08-17T16:23:49.276Z,8.43
2022-08-17T16:26:18.034Z,13.75
2022-08-17T16:28:47.881Z,10.02
2022-08-17T16:31:16.381Z,12.00
2022-08-17T16:34:15.975Z,14.48
2022-08-17T16:36:33.417Z,14.07
2022-08-17T16:39:01.568Z,14.20
2022-08-17T16:41:45.301Z,16.15
2022-08-17T16:44:16.132Z,16.00
2022-08-17T16:46:45.477Z,21.75
2022-08-17T16:49:24.417Z,15.60
2022-08-17T16:52:04.056Z,13.98
2022-08-17T16:54:32.630Z,13.93
2022-08-17T16:57:00.745Z,16.40
2022-08-17T16:59:40.883Z,13.85
2022-08-17T17:02:14.009Z,18.25
2022-08-17T17:04:49.137Z,11.93
2022-08-17T17:07:33.936Z,15.02
2022-08-17T17:10:05.997Z,13.68
2022-08-17T17:12:59.554Z,15.85
2022-08-17T17:15:29.829Z,13.85
2022-08-17T17:18:07.161Z,19.85
2022-08-17T17:20:41.506Z,12.43
2022-08-17T17:23:16.069Z,15.27
2022-08-17T17:25:57.628Z,15.45
2022-08-17T17:28:31.504Z,15.95
2022-08-17T17:31:04.589Z,15.70
2022-08-17T17:33:38.612Z,18.48
2022-08-17T17:36:14.004Z,16.25
2022-08-17T17:38:46.425Z,15.30
2022-08-17T17:41:25.804Z,19.45
2022-08-17T17:44:02.782Z,16.05
2022-08-17T17:46:38.013Z,13.65
2022-08-17T17:49:07.074Z,16.42
2022-08-17T17:51:58.146Z,17.15
2022-08-17T17:54:41.402Z,16.70
2022-08-17T17:57:17.747Z,23.83
2022-08-17T17:59:54.193Z,13.80
2022-08-17T18:02:51.274Z,17.52
2022-08-17T18:05:44.646Z,20.30
2022-08-17T18:08:31.954Z,23.90
2022-08-17T18:11:07.289Z,22.45
2022-08-17T18:13:44.175Z,18.30
2022-08-17T18:16:15.924Z,18.30
2022-08-17T18:18:48.225Z,13.57
2022-08-17T18:21:19.496Z,15.07
2022-08-17T18:23:53.758Z,20.52
2022-08-17T18:26:42.035Z,18.88
2022-08-17T18:29:37.583Z,18.17
2022-08-17T18:32:37.986Z,25.00
2022-08-17T18:35:30.173Z,16.92
2022-08-17T18:38:20.456Z,21.75
2022-08-17T18:41:00.362Z,20.20
2022-08-17T18:43:44.372Z,22.50
2022-08-17T18:46:29.439Z,23.05
2022-08-17T18:49:01.122Z,18.48
2022-08-17T18:51:40.492Z,19.05
2022-08-17T18:54:21.741Z,18.33
2022-08-17T18:56:52.164Z,19.55
2022-08-17T18:59:30.833Z,23.02
2022-08-17T19:02:15.993Z,19.77
2022-08-17T19:05:08.399Z,26.45
2022-08-17T19:07:40.433Z,19.02
2022-08-17T19:10:17.556Z,16.95
2022-08-17T19:12:51.366Z,20.30
2022-08-17T19:15:25.851Z,25.60
2022-08-17T19:17:59.423Z,19.02
2022-08-17T19:20:32.731Z,21.25
2022-08-17T19:23:22.299Z,21.73
2022-08-17T19:25:52.689Z,19.75
2022-08-17T19:28:24.972Z,19.55
2022-08-17T19:30:57.864Z,20.23
2022-08-17T19:33:27.246Z,19.83
2022-08-17T19:36:03.972Z,19.23
2022-08-17T19:38:43.128Z,22.63
2022-08-17T19:41:19.913Z,19.27
2022-08-17T19:43:58.077Z,26.80
2022-08-17T19:46:35.989Z,23.80
2022-08-17T19:49:14.667Z,24.05
2022-08-17T19:51:48.755Z,26.67
2022-08-17T19:54:27.163Z,22.40
2022-08-17T19:57:01.745Z,19.20
2022-08-17T19:59:49.055Z,24.33
2022-08-17T20:02:31.850Z,18.52
2022-08-17T20:05:03.981Z,20.75
2022-08-17T20:07:43.275Z,20.83
2022-08-17T20:10:19.838Z,20.35
2022-08-17T20:12:52.785Z,27.80
2022-08-17T20:15:28.351Z,27.30
2022-08-17T20:18:00.822Z,26.70
2022-08-17T20:20:34.866Z,19.92
2022-08-17T20:23:08.035Z,20.10
2022-08-17T20:25:46.242Z,21.67
2022-08-17T20:28:23.405Z,20.98
2022-08-17T20:30:52.245Z,23.08
2022-08-17T20:33:26.351Z,23.95
2022-08-17T20:36:18.196Z,21.35
2022-08-17T20:38:50.341Z,22.40
2022-08-17T20:41:22.514Z,22.27
2022-08-17T20:44:05.887Z,23.92
2022-08-17T20:47:09.021Z,20.23
2022-08-17T20:49:48.820Z,32.55
2022-08-17T20:52:38.516Z,22.55
2022-08-17T20:55:09.506Z,27.45
2022-08-17T20:57:48.977Z,24.27
2022-08-17T21:00:45.638Z,21.38
2022-08-17T21:03:50.981Z,24.85
2022-08-17T21:06:22.666Z,23.17
2022-08-17T21:08:54.453Z,22.05
2022-08-17T21:12:02.670Z,22.48
2022-08-17T21:14:41.898Z,27.58
2022-08-17T21:17:31.098Z,22.83
2022-08-17T21:20:11.475Z,25.83
2022-08-17T21:22:54.830Z,22.33
2022-08-17T21:25:53.133Z,22.85
2022-08-17T21:28:34.129Z,22.15
2022-08-17T21:31:09.177Z,27.02
2022-08-17T21:33:39.619Z,28.75
2022-08-17T21:36:26.954Z,29.70
2022-08-17T21:39:06.696Z,26.08
2022-08-17T21:41:45.471Z,32.38
2022-08-17T21:44:22.294Z,24.38
2022-08-17T21:46:52.949Z,26.63
2022-08-17T21:49:26.815Z,20.70
2022-08-17T21:51:56.915Z,28.25
2022-08-17T21:54:31.732Z,30.83
2022-08-17T21:57:02.338Z,28.65
2022-08-17T21:59:35.717Z,29.40
2022-08-17T22:02:06.148Z,30.30
2022-08-17T22:04:37.781Z,26.00
2022-08-17T22:07:08.791Z,22.63
2022-08-17T22:09:43.304Z,29.15
2022-08-17T22:12:13.877Z,25.23
2022-08-17T22:14:52.979Z,27.08
2022-08-17T22:17:24.787Z,31.88
2022-08-17T22:19:56.432Z,24.08
2022-08-17T22:22:34.799Z,28.13
2022-08-17T22:25:05.206Z,28.58
2022-08-17T22:27:48.979Z,33.90
2022-08-17T22:30:59.537Z,27.58
2022-08-17T22:33:37.909Z,27.30
2022-08-17T22:36:22.830Z,27.00
2022-08-17T22:38:52.479Z,25.88
2022-08-17T22:41:34.441Z,32.63
2022-08-17T22:44:20.719Z,25.80
2022-08-17T22:47:01.245Z,25.45
2022-08-17T22:49:33.744Z,22.10
2022-08-17T22:52:11.077Z,25.85
2022-08-17T22:54:56.768Z,30.20
2022-08-17T22:57:43.396Z,30.05
2022-08-17T23:00:31.538Z,29.17
2022-08-17T23:03:14.692Z,29.13
2022-08-17T23:05:46.413Z,34.70
2022-08-17T23:08:21.332Z,27.42
2022-08-17T23:10:50.313Z,25.67
2022-08-17T23:13:18.520Z,28.05
2022-08-17T23:15:48.226Z,29.95
2022-08-17T23:18:18.132Z,30.65
2022-08-17T23:20:46.763Z,27.00
2022-08-17T23:23:15.951Z,29.05
2022-08-17T23:25:46.562Z,29.42
2022-08-17T23:28:14.782Z,29.00
2022-08-17T23:30:46.658Z,26.77
2022-08-17T23:33:27.438Z,26.30
2022-08-17T23:35:55.525Z,23.08
2022-08-17T23:38:25.482Z,30.23
2022-08-17T23:40:53.778Z,32.05
2022-08-17T23:43:24.129Z,29.35
2022-08-17T23:45:55.085Z,28.60
2022-08-17T23:48:32.666Z,30.27
2022-08-17T23:51:08.748Z,31.80
2022-08-17T23:53:37.813Z,28.88
2022-08-17T23:56:09.217Z,28.42
2022-08-17T23:58:39.544Z,29.98
